Time;durP1;ratioP1;P1;durP2;ratioP2;P2;SDS_P1;SDS_P2;PMS_P1;PMS_P2;Temp;Humidity;BMP_temperature;BMP_pressure;BME280_temperature;BME280_humidity;BME280_pressure;Samples;Min_cycle;Max_cycle;Signal;HPM_P1;HPM_P2
2021/11/14 00:01:49;;;;;;;8.57;7.53;;;;;;;5.58;100.00;95411.09;5071284;28;20219;-79
2021/11/14 00:04:14;;;;;;;8.13;7.33;;;;;;;5.58;100.00;95410.28;5072735;28;20200;-78
2021/11/14 00:06:43;;;;;;;7.90;6.13;;;;;;;5.61;100.00;95410.00;5073233;28;20716;-79
2021/11/14 00:09:08;;;;;;;6.77;6.10;;;;;;;5.59;100.00;95410.16;5073923;28;20173;-79
2021/11/14 00:11:33;;;;;;;8.13;6.47;;;;;;;5.60;100.00;95416.13;5074152;28;20210;-79
2021/11/14 00:13:59;;;;;;;10.10;7.70;;;;;;;5.57;100.00;95403.47;5073799;28;20264;-79
2021/11/14 00:16:25;;;;;;;9.40;7.20;;;;;;;5.58;100.00;95407.69;5074518;28;20268;-80
2021/11/14 00:18:50;;;;;;;11.60;7.87;;;;;;;5.57;100.00;95403.47;5077516;28;20234;-80
2021/11/14 00:21:18;;;;;;;9.47;7.80;;;;;;;5.56;100.00;95404.41;5094983;28;20188;-80
2021/11/14 00:23:43;;;;;;;9.97;8.10;;;;;;;5.59;100.00;95406.75;5076483;28;20204;-80
2021/11/14 00:26:08;;;;;;;10.63;8.93;;;;;;;5.59;100.00;95401.59;5093911;28;20279;-80
2021/11/14 00:28:34;;;;;;;10.40;8.97;;;;;;;5.56;100.00;95394.91;5075600;28;20172;-80
2021/11/14 00:31:00;;;;;;;10.47;8.10;;;;;;;5.57;100.00;95406.06;5069648;28;20200;-80
2021/11/14 00:33:25;;;;;;;12.10;10.40;;;;;;;5.56;100.00;95400.06;5072337;28;20792;-79
2021/11/14 00:35:52;;;;;;;12.40;10.73;;;;;;;5.56;100.00;95392.34;5073194;28;20180;-80
2021/11/14 00:38:21;;;;;;;13.83;11.10;;;;;;;5.56;100.00;95394.09;5090791;28;20172;-80
2021/11/14 00:40:47;;;;;;;14.43;12.40;;;;;;;5.55;100.00;95400.19;5074709;28;20204;-80
2021/11/14 00:43:12;;;;;;;13.00;11.30;;;;;;;5.53;100.00;95397.75;5072626;28;20213;-80
2021/11/14 00:45:40;;;;;;;19.00;14.37;;;;;;;5.51;100.00;95401.38;5072624;28;20182;-80
2021/11/14 00:48:05;;;;;;;15.67;12.83;;;;;;;5.52;100.00;95397.88;5074256;28;20181;-80
2021/11/14 00:50:32;;;;;;;13.33;10.23;;;;;;;5.51;100.00;95401.38;5090172;28;20200;-80
2021/11/14 00:53:00;;;;;;;10.27;9.17;;;;;;;5.47;100.00;95398.22;5073368;28;20173;-80
2021/11/14 00:55:28;;;;;;;12.40;9.67;;;;;;;5.46;100.00;95406.88;5073877;28;20435;-81
2021/11/14 00:57:54;;;;;;;10.90;9.17;;;;;;;5.46;100.00;95398.34;5073429;28;20185;-80
2021/11/14 01:00:23;;;;;;;9.50;8.20;;;;;;;5.50;100.00;95402.31;5067154;28;20299;-79
2021/11/14 01:02:49;;;;;;;9.20;7.33;;;;;;;5.51;100.00;95402.19;5078724;28;20177;-81
2021/11/14 01:05:15;;;;;;;9.23;7.70;;;;;;;5.59;100.00;95404.19;5072522;28;20173;-82
2021/11/14 01:07:41;;;;;;;8.33;6.93;;;;;;;5.52;100.00;95403.00;5056351;28;20177;-80
2021/11/14 01:10:10;;;;;;;8.63;7.43;;;;;;;5.52;100.00;95403.00;5072547;28;20574;-80
2021/11/14 01:12:36;;;;;;;10.80;7.10;;;;;;;5.51;100.00;95403.97;5072828;28;20169;-80
2021/11/14 01:15:03;;;;;;;10.37;7.67;;;;;;;5.49;100.00;95404.09;5072162;28;20181;-81
2021/11/14 01:17:28;;;;;;;9.23;7.57;;;;;;;5.47;100.00;95410.25;5074192;28;20212;-80
2021/11/14 01:19:53;;;;;;;7.10;6.40;;;;;;;5.46;100.00;95408.63;5073074;28;20252;-80
2021/11/14 01:22:19;;;;;;;8.60;7.33;;;;;;;5.40;100.00;95412.53;5055935;28;20223;-81
2021/11/14 01:24:44;;;;;;;8.03;6.63;;;;;;;5.40;100.00;95404.81;5071772;28;20755;-80
2021/11/14 01:27:10;;;;;;;7.70;6.67;;;;;;;5.35;100.00;95412.06;5072411;28;20280;-81
2021/11/14 01:29:35;;;;;;;7.83;6.93;;;;;;;5.31;100.00;95410.66;5058151;28;20263;-80
2021/11/14 01:32:01;;;;;;;7.53;6.60;;;;;;;5.31;100.00;95413.25;5084669;28;20257;-81
2021/11/14 01:34:26;;;;;;;9.13;6.80;;;;;;;5.33;100.00;95414.75;5090952;28;20187;-78
2021/11/14 01:36:51;;;;;;;8.13;7.33;;;;;;;5.28;100.00;95416.84;5084177;28;20229;-81
2021/11/14 01:39:17;;;;;;;8.17;6.90;;;;;;;5.33;100.00;95421.66;5055041;28;20196;-80
2021/11/14 01:41:42;;;;;;;8.17;6.50;;;;;;;5.35;100.00;95424.94;5074212;28;20262;-80
2021/11/14 01:44:08;;;;;;;9.47;7.63;;;;;;;5.32;100.00;95426.00;5054089;28;20216;-78
2021/11/14 01:46:34;;;;;;;9.60;8.60;;;;;;;5.32;100.00;95423.41;5055547;28;20718;-80
2021/11/14 01:49:00;;;;;;;8.90;7.73;;;;;;;5.34;100.00;95420.72;5064890;28;20189;-80
2021/11/14 01:51:25;;;;;;;8.67;7.53;;;;;;;5.36;100.00;95426.56;5055679;28;20696;-80
2021/11/14 01:53:51;;;;;;;8.40;7.27;;;;;;;5.39;100.00;95424.59;5071485;28;20285;-79
2021/11/14 01:56:19;;;;;;;9.07;7.83;;;;;;;5.40;100.00;95423.66;5072283;28;20174;-81
2021/11/14 01:58:45;;;;;;;10.30;7.97;;;;;;;5.37;100.00;95416.13;5072133;28;20645;-80
2021/11/14 02:01:37;;;;;;;7.60;6.90;;;;;;;5.44;100.00;95425.97;5074753;28;20785;-79
2021/11/14 02:04:05;;;;;;;8.20;7.13;;;;;;;5.43;100.00;95420.00;5056498;28;20243;-80
2021/11/14 02:06:33;;;;;;;8.47;7.40;;;;;;;5.40;100.00;95417.69;5055664;28;20192;-79
2021/11/14 02:08:58;;;;;;;8.53;7.10;;;;;;;5.38;100.00;95412.63;5055202;28;20204;-80
2021/11/14 02:11:25;;;;;;;8.40;6.77;;;;;;;5.37;100.00;95416.13;5071762;28;20201;-81
2021/11/14 02:13:50;;;;;;;8.17;7.03;;;;;;;5.39;100.00;95416.84;5072242;28;20256;-79
2021/11/14 02:16:19;;;;;;;6.77;5.50;;;;;;;5.38;100.00;95415.19;5071468;28;20215;-80
2021/11/14 02:18:44;;;;;;;8.30;6.80;;;;;;;5.36;100.00;95411.94;5055033;28;20185;-80
2021/11/14 02:21:10;;;;;;;8.50;6.80;;;;;;;5.37;100.00;95416.13;5055070;28;20730;-79
2021/11/14 02:23:36;;;;;;;7.13;6.43;;;;;;;5.43;100.00;95420.00;5053984;28;20216;-80
2021/11/14 02:26:01;;;;;;;7.20;6.30;;;;;;;5.43;100.00;95414.03;5071802;28;20719;-80
2021/11/14 02:28:27;;;;;;;5.83;4.97;;;;;;;5.46;100.00;95413.78;5055027;28;20292;-80
2021/11/14 02:30:55;;;;;;;5.73;5.13;;;;;;;5.51;100.00;95411.69;5055174;28;20209;-80
2021/11/14 02:33:21;;;;;;;8.27;6.90;;;;;;;5.48;100.00;95412.75;5063101;28;20178;-80
2021/11/14 02:35:49;;;;;;;8.23;6.97;;;;;;;5.52;100.00;95414.13;5071388;28;20183;-81
2021/11/14 02:38:16;;;;;;;10.40;9.20;;;;;;;5.48;100.00;95417.06;5055069;28;20645;-80
2021/11/14 02:40:42;;;;;;;12.90;10.73;;;;;;;5.42;100.00;95414.97;5071583;28;20206;-80
2021/11/14 02:43:08;;;;;;;14.40;12.17;;;;;;;5.46;100.00;95419.75;5088042;28;20192;-80
2021/11/14 02:45:34;;;;;;;15.23;13.20;;;;;;;5.39;100.00;95418.63;5054019;28;20591;-79
2021/11/14 02:47:59;;;;;;;16.13;13.23;;;;;;;5.38;100.00;95417.78;5071555;28;20176;-80
2021/11/14 02:50:25;;;;;;;17.10;12.27;;;;;;;5.40;100.00;95421.06;5054638;28;20258;-80
2021/11/14 02:52:51;;;;;;;13.30;11.20;;;;;;;5.36;100.00;95422.22;5070900;28;20185;-78
2021/11/14 02:55:20;;;;;;;14.37;11.97;;;;;;;5.37;100.00;95416.13;5070428;28;20185;-79
2021/11/14 02:57:45;;;;;;;13.33;11.93;;;;;;;5.39;100.00;95416.03;5087371;28;20177;-80
2021/11/14 03:00:14;;;;;;;14.07;11.77;;;;;;;5.33;100.00;95419.91;5071040;28;20201;-79
2021/11/14 03:02:40;;;;;;;16.17;12.57;;;;;;;5.35;100.00;95423.16;5078464;28;20275;-80
2021/11/14 03:05:11;;;;;;;15.67;12.70;;;;;;;5.32;100.00;95417.44;5075737;28;20264;-81
2021/11/14 03:07:37;;;;;;;15.40;12.87;;;;;;;5.32;100.00;95422.59;5075491;28;20177;-81
2021/11/14 03:10:05;;;;;;;15.37;12.80;;;;;;;5.27;100.00;95420.38;5059002;28;20608;-80
2021/11/14 03:12:30;;;;;;;15.57;12.17;;;;;;;5.30;100.00;95417.56;5075288;28;20728;-81
2021/11/14 03:14:57;;;;;;;14.93;11.60;;;;;;;5.26;100.00;95421.31;5057687;28;20264;-80
2021/11/14 03:17:22;;;;;;;13.33;11.53;;;;;;;5.25;100.00;95424.00;5058569;28;20181;-79
2021/11/14 03:19:48;;;;;;;14.10;11.70;;;;;;;5.26;100.00;95423.88;5058130;28;20338;-80
2021/11/14 03:22:13;;;;;;;12.33;10.80;;;;;;;5.24;100.00;95417.22;5075418;28;20627;-80
2021/11/14 03:24:39;;;;;;;12.77;10.87;;;;;;;5.24;100.00;95420.63;5074111;28;20223;-80
2021/11/14 03:27:05;;;;;;;14.57;10.97;;;;;;;5.21;100.00;95425.16;5074565;28;20860;-79
2021/11/14 03:29:30;;;;;;;11.07;9.87;;;;;;;5.23;100.00;95429.28;5057899;28;20187;-81
2021/11/14 03:31:55;;;;;;;13.70;10.63;;;;;;;5.17;100.00;95422.00;5057498;28;20213;-81
2021/11/14 03:34:21;;;;;;;13.20;11.17;;;;;;;5.17;100.00;95428.91;5084222;28;20185;-81
2021/11/14 03:36:46;;;;;;;11.43;9.73;;;;;;;5.16;100.00;95429.84;5057952;28;20188;-82
2021/11/14 03:39:11;;;;;;;11.17;9.93;;;;;;;5.16;100.00;95435.00;5074428;28;20177;-79
2021/11/14 03:41:39;;;;;;;11.60;9.47;;;;;;;5.16;100.00;95443.53;5057753;28;20679;-79
2021/11/14 03:44:06;;;;;;;10.63;9.53;;;;;;;5.14;100.00;95436.88;5074893;28;20544;-80
2021/11/14 03:46:31;;;;;;;11.80;10.17;;;;;;;5.13;100.00;95443.78;5057581;28;20211;-80
2021/11/14 03:48:57;;;;;;;11.87;9.93;;;;;;;5.13;100.00;95438.63;5057844;28;20880;-79
2021/11/14 03:51:23;;;;;;;11.03;9.73;;;;;;;5.12;100.00;95439.56;5074574;28;20212;-80
2021/11/14 03:53:49;;;;;;;11.33;10.13;;;;;;;5.15;100.00;95441.91;5057249;28;20181;-80
2021/11/14 03:56:15;;;;;;;12.73;9.90;;;;;;;5.12;100.00;95439.56;5057170;28;20596;-80
2021/11/14 03:58:41;;;;;;;12.57;10.50;;;;;;;5.12;100.00;95436.97;5060805;28;20177;-79
2021/11/14 04:01:10;;;;;;;11.43;9.87;;;;;;;5.10;100.00;95437.09;5062130;28;20205;-79
2021/11/14 04:03:36;;;;;;;12.30;9.83;;;;;;;5.10;100.00;95444.00;5085115;28;20197;-79
2021/11/14 04:06:02;;;;;;;13.13;10.67;;;;;;;5.12;100.00;95436.97;5060621;28;20262;-79
2021/11/14 04:08:27;;;;;;;13.57;10.73;;;;;;;5.13;100.00;95443.78;5057486;28;20346;-78
2021/11/14 04:10:55;;;;;;;13.47;10.53;;;;;;;5.13;100.00;95443.78;5058260;28;20208;-78
2021/11/14 04:13:21;;;;;;;13.17;11.00;;;;;;;5.13;100.00;95440.41;5076689;28;20633;-78
2021/11/14 04:15:48;;;;;;;13.67;11.20;;;;;;;5.11;100.00;95453.38;5057581;28;20222;-78
2021/11/14 04:18:13;;;;;;;15.33;11.60;;;;;;;5.09;100.00;95440.63;5073632;28;20169;-80
2021/11/14 04:20:41;;;;;;;13.83;11.10;;;;;;;5.10;100.00;95449.97;5074336;28;20257;-78
2021/11/14 04:23:07;;;;;;;13.43;11.13;;;;;;;5.11;100.00;95461.09;5059573;28;20232;-78
2021/11/14 04:25:33;;;;;;;13.77;11.00;;;;;;;5.10;100.00;95462.84;5082115;28;20204;-79
2021/11/14 04:27:58;;;;;;;14.13;11.20;;;;;;;5.14;100.00;95465.19;5074963;28;20173;-79
2021/11/14 04:30:25;;;;;;;17.60;11.70;;;;;;;5.16;100.00;95468.47;5074727;28;20262;-79
2021/11/14 04:32:51;;;;;;;15.27;11.77;;;;;;;5.17;100.00;95464.97;5074949;28;20201;-79
2021/11/14 04:35:17;;;;;;;15.03;11.93;;;;;;;5.22;100.00;95463.69;5074354;28;20200;-79
2021/11/14 04:37:48;;;;;;;17.00;12.07;;;;;;;5.22;100.00;95461.09;5074303;28;20181;-80
2021/11/14 04:40:13;;;;;;;14.70;11.13;;;;;;;5.22;100.00;95460.28;5058225;28;20204;-79
2021/11/14 04:42:39;;;;;;;14.97;11.97;;;;;;;5.21;100.00;95464.63;5074214;28;20174;-79
2021/11/14 04:45:05;;;;;;;15.43;11.33;;;;;;;5.27;100.00;95466.72;5056546;28;20204;-78
2021/11/14 04:47:30;;;;;;;12.30;10.03;;;;;;;5.27;100.00;95460.75;5057904;28;20181;-79
2021/11/14 04:49:56;;;;;;;15.37;11.60;;;;;;;5.27;100.00;95466.72;5075340;28;20675;-79
2021/11/14 04:52:21;;;;;;;13.23;10.77;;;;;;;5.26;100.00;95461.69;5074269;28;20193;-78
2021/11/14 04:54:46;;;;;;;14.13;11.03;;;;;;;5.28;100.00;95477.81;5081811;28;20632;-78
2021/11/14 04:57:12;;;;;;;13.47;11.07;;;;;;;5.25;100.00;95470.34;5056945;28;20648;-78
2021/11/14 04:59:37;;;;;;;13.57;10.80;;;;;;;5.29;100.00;95472.56;5057169;28;20181;-79
2021/11/14 05:02:03;;;;;;;14.40;10.90;;;;;;;5.28;100.00;95473.50;5073830;28;20220;-78
2021/11/14 05:04:28;;;;;;;15.10;11.90;;;;;;;5.42;100.00;95477.59;5056505;28;20212;-79
2021/11/14 05:06:54;;;;;;;13.30;11.17;;;;;;;5.44;100.00;95472.31;5056719;28;20189;-79
2021/11/14 05:09:19;;;;;;;15.33;12.00;;;;;;;5.37;100.00;95479.69;5056893;28;20189;-78
2021/11/14 05:11:45;;;;;;;16.17;12.57;;;;;;;5.35;100.00;95482.41;5073738;28;20216;-78
2021/11/14 05:14:10;;;;;;;15.30;11.47;;;;;;;5.35;100.00;95479.00;5073165;28;20234;-78
2021/11/14 05:16:35;;;;;;;16.03;12.53;;;;;;;5.33;100.00;95481.69;5073323;28;20185;-79
2021/11/14 05:19:01;;;;;;;16.80;12.30;;;;;;;5.34;100.00;95493.63;5073802;28;20200;-78
2021/11/14 05:21:26;;;;;;;18.73;12.77;;;;;;;5.35;100.00;95484.97;5056742;28;20200;-78
2021/11/14 05:23:51;;;;;;;22.87;14.90;;;;;;;5.37;100.00;95488.25;5056047;28;20231;-78
2021/11/14 05:26:17;;;;;;;27.27;16.90;;;;;;;5.37;100.00;95492.56;5074999;28;20226;-78
2021/11/14 05:28:42;;;;;;;26.07;16.20;;;;;;;5.37;100.00;95488.25;5076649;28;20172;-79
2021/11/14 05:31:08;;;;;;;21.53;14.93;;;;;;;5.47;100.00;95496.06;5093799;28;20196;-79
2021/11/14 05:33:33;;;;;;;22.77;16.17;;;;;;;5.47;100.00;95501.22;5092965;28;20172;-80
2021/11/14 05:35:59;;;;;;;25.23;16.13;;;;;;;5.43;100.00;95494.69;5094959;28;20176;-78
2021/11/14 05:38:24;;;;;;;23.10;15.43;;;;;;;5.45;100.00;95500.53;5094707;28;20267;-78
2021/11/14 05:40:49;;;;;;;20.77;16.20;;;;;;;5.43;100.00;95506.75;5076704;28;20204;-77
2021/11/14 05:43:15;;;;;;;23.60;16.33;;;;;;;5.42;100.00;95494.81;5076232;28;20269;-78
2021/11/14 05:45:41;;;;;;;24.10;17.00;;;;;;;5.43;100.00;95509.31;5076666;28;20180;-79
2021/11/14 05:48:06;;;;;;;26.03;17.87;;;;;;;5.43;100.00;95514.47;5076729;28;20177;-79
2021/11/14 05:50:32;;;;;;;23.97;17.60;;;;;;;5.44;100.00;95518.69;5093363;28;20192;-78
2021/11/14 05:52:57;;;;;;;23.80;17.13;;;;;;;5.42;100.00;95523.13;5089407;28;20192;-78
2021/11/14 05:55:22;;;;;;;23.53;16.50;;;;;;;5.42;100.00;95529.09;5083631;28;20180;-78
2021/11/14 06:00:21;;;;;;;26.00;17.00;;;;;;;5.43;100.00;95524.78;5092664;28;20242;-78
2021/11/14 06:02:58;;;;;;;22.33;15.50;;;;;;;5.39;100.00;95530.16;5093705;28;20218;-79
2021/11/14 06:05:25;;;;;;;23.93;16.53;;;;;;;5.35;100.00;95531.31;5093726;28;20556;-79
2021/11/14 06:07:50;;;;;;;26.47;18.43;;;;;;;5.37;100.00;95534.59;5093394;28;20636;-77
2021/11/14 06:10:16;;;;;;;25.47;19.00;;;;;;;5.44;100.00;95539.28;5093248;28;20200;-78
2021/11/14 06:12:41;;;;;;;26.33;19.10;;;;;;;5.36;100.00;95542.44;5076247;28;20200;-78
2021/11/14 06:15:09;;;;;;;28.17;19.13;;;;;;;5.36;100.00;95548.41;5092554;28;20552;-80
2021/11/14 06:17:34;;;;;;;27.50;19.90;;;;;;;5.35;100.00;95546.78;5092777;28;20180;-78
2021/11/14 06:20:00;;;;;;;26.20;19.57;;;;;;;5.43;100.00;95548.78;5075386;28;20192;-79
2021/11/14 06:22:25;;;;;;;28.17;20.67;;;;;;;5.37;100.00;95550.03;5073554;28;20273;-79
2021/11/14 06:24:51;;;;;;;30.53;21.47;;;;;;;5.35;100.00;95548.53;5066005;28;20577;-78
2021/11/14 06:27:16;;;;;;;33.53;22.03;;;;;;;5.37;100.00;95550.03;5075415;28;20722;-79
2021/11/14 06:29:42;;;;;;;31.73;22.63;;;;;;;5.37;100.00;95554.38;5072116;28;20177;-80
2021/11/14 06:32:07;;;;;;;34.67;22.73;;;;;;;5.36;100.00;95557.88;5071762;28;20681;-79
2021/11/14 06:34:33;;;;;;;31.17;22.90;;;;;;;5.34;100.00;95549.47;5054747;28;20173;-78
2021/11/14 06:36:58;;;;;;;31.57;22.37;;;;;;;5.32;100.00;95562.47;5072913;28;20200;-78
2021/11/14 06:39:23;;;;;;;32.57;22.53;;;;;;;5.34;100.00;95563.16;5071949;28;20209;-78
2021/11/14 06:41:49;;;;;;;34.07;24.33;;;;;;;5.33;100.00;95564.09;5055183;28;20201;-79
2021/11/14 06:44:14;;;;;;;36.17;24.60;;;;;;;5.33;100.00;95558.94;5054548;28;20266;-78
2021/11/14 06:46:39;;;;;;;34.90;23.63;;;;;;;5.38;100.00;95567.13;5072187;28;20211;-79
2021/11/14 06:49:05;;;;;;;34.77;22.37;;;;;;;5.41;100.00;95566.09;5055026;28;20926;-78
2021/11/14 06:51:30;;;;;;;39.80;25.03;;;;;;;5.34;100.00;95572.66;5054950;28;20554;-79
2021/11/14 06:53:56;;;;;;;31.23;22.70;;;;;;;5.36;100.00;95570.75;5067724;28;20718;-79
2021/11/14 06:56:21;;;;;;;35.37;23.00;;;;;;;5.37;100.00;95580.13;5072190;28;20211;-78
2021/11/14 06:58:47;;;;;;;42.57;23.87;;;;;;;5.38;100.00;95574.84;5054579;28;20268;-78
2021/11/14 07:01:12;;;;;;;34.90;22.40;;;;;;;5.45;100.00;95582.13;5071907;28;20189;-79
2021/11/14 07:03:38;;;;;;;33.17;22.60;;;;;;;5.45;100.00;95588.09;5071201;28;20225;-79
2021/11/14 07:06:03;;;;;;;38.00;23.47;;;;;;;5.43;100.00;95578.84;5071683;28;20201;-79
2021/11/14 07:08:28;;;;;;;41.17;24.43;;;;;;;5.47;100.00;95587.97;5071397;28;20189;-78
2021/11/14 07:10:54;;;;;;;51.07;26.13;;;;;;;5.46;100.00;95594.06;5071044;28;20197;-78
2021/11/14 07:13:19;;;;;;;47.10;23.60;;;;;;;5.55;100.00;95590.81;5054347;28;20573;-78
2021/11/14 07:15:44;;;;;;;41.10;23.97;;;;;;;5.50;100.00;95604.03;5053820;28;20559;-79
2021/11/14 07:18:10;;;;;;;38.80;24.37;;;;;;;5.59;100.00;95605.94;5071635;28;20636;-78
2021/11/14 07:20:35;;;;;;;42.07;24.93;;;;;;;5.63;100.00;95612.47;5054559;28;20585;-79
2021/11/14 07:23:03;;;;;;;38.53;24.93;;;;;;;5.68;100.00;95612.97;5061025;28;20208;-79
2021/11/14 07:25:28;;;;;;;59.83;26.07;;;;;;;5.65;100.00;95617.50;5083926;28;20195;-79
2021/11/14 07:27:55;;;;;;;55.93;25.53;;;;;;;5.67;100.00;95623.38;5070097;28;20201;-78
2021/11/14 07:30:21;;;;;;;48.50;24.33;;;;;;;5.69;100.00;95618.94;5070124;28;20228;-80
2021/11/14 07:32:48;;;;;;;51.20;23.90;;;;;;;5.65;100.00;95625.22;5067767;28;20193;-81
2021/11/14 07:35:16;;;;;;;33.13;22.40;;;;;;;5.63;100.00;95625.34;5086975;28;20600;-80
2021/11/14 07:37:42;;;;;;;67.50;24.37;;;;;;;5.60;100.00;95625.59;5053232;28;20212;-80
2021/11/14 07:40:09;;;;;;;51.27;23.13;;;;;;;5.61;100.00;95634.16;5070535;28;20197;-80
2021/11/14 07:42:37;;;;;;;31.37;22.67;;;;;;;5.59;100.00;95628.28;5069626;28;20193;-79
2021/11/14 07:45:04;;;;;;;29.77;21.73;;;;;;;5.67;100.00;95633.69;5054153;28;20581;-79
2021/11/14 07:47:29;;;;;;;34.67;23.50;;;;;;;5.60;100.00;95633.31;5071751;28;20208;-80
2021/11/14 07:49:55;;;;;;;34.07;22.53;;;;;;;5.70;100.00;95633.44;5071494;28;20224;-79
2021/11/14 07:52:20;;;;;;;33.97;23.23;;;;;;;5.64;100.00;95636.47;5063391;28;20212;-80
2021/11/14 07:54:46;;;;;;;36.60;24.67;;;;;;;5.64;100.00;95644.22;5072202;28;20579;-81
2021/11/14 07:57:11;;;;;;;37.20;25.23;;;;;;;5.65;100.00;95640.69;5074518;28;20627;-80
2021/11/14 07:59:36;;;;;;;36.90;24.53;;;;;;;5.61;100.00;95639.28;5058222;28;20181;-80
2021/11/14 08:02:02;;;;;;;34.93;24.63;;;;;;;5.66;100.00;95637.22;5076179;28;20228;-80
2021/11/14 08:04:29;;;;;;;30.23;22.93;;;;;;;5.64;100.00;95644.22;5057442;28;20285;-80
2021/11/14 08:06:56;;;;;;;35.63;22.93;;;;;;;5.68;100.00;95646.44;5074576;28;20185;-80
2021/11/14 08:09:21;;;;;;;35.00;22.20;;;;;;;5.76;100.00;95643.31;5058353;28;20672;-80
2021/11/14 08:11:47;;;;;;;33.20;22.20;;;;;;;5.82;100.00;95637.66;5057791;28;20212;-79
2021/11/14 08:14:13;;;;;;;31.43;21.70;;;;;;;5.91;100.00;95647.31;5074282;28;20201;-80
2021/11/14 08:16:38;;;;;;;34.50;21.83;;;;;;;5.99;100.00;95644.16;5074535;28;20597;-80
2021/11/14 08:19:04;;;;;;;35.90;22.43;;;;;;;6.06;100.00;95647.91;5075332;28;20177;-81
2021/11/14 08:21:29;;;;;;;35.60;22.10;;;;;;;6.24;100.00;95648.25;5059046;28;20232;-80
2021/11/14 08:23:54;;;;;;;38.43;23.20;;;;;;;6.26;100.00;95648.94;5078529;28;20242;-80
2021/11/14 08:26:20;;;;;;;35.47;23.23;;;;;;;6.36;100.00;95642.16;5074580;28;20255;-81
2021/11/14 08:28:45;;;;;;;30.03;20.70;;;;;;;6.40;100.00;95637.56;5056169;28;20275;-80
2021/11/14 08:31:15;;;;;;;33.20;22.67;;;;;;;6.59;100.00;95640.34;5070400;28;20300;-80
2021/11/14 08:33:40;;;;;;;32.67;21.87;;;;;;;6.65;100.00;95641.63;5072756;28;20177;-80
2021/11/14 08:36:05;;;;;;;30.00;21.73;;;;;;;6.73;100.00;95652.16;5076297;28;20236;-79
2021/11/14 08:38:31;;;;;;;30.47;21.70;;;;;;;6.74;99.80;95649.47;5072445;28;20531;-79
2021/11/14 08:40:56;;;;;;;29.27;20.23;;;;;;;6.78;99.68;95652.59;5072484;28;20206;-80
2021/11/14 08:43:21;;;;;;;27.67;20.07;;;;;;;6.74;99.54;95656.38;5055849;28;20209;-80
2021/11/14 08:45:47;;;;;;;28.20;20.43;;;;;;;6.67;99.61;95665.53;5072666;28;20178;-80
2021/11/14 08:48:13;;;;;;;29.13;21.50;;;;;;;6.61;99.49;95659.09;5077696;28;20220;-80
2021/11/14 08:50:38;;;;;;;30.13;20.93;;;;;;;6.64;99.78;95668.38;5072135;28;20967;-81
2021/11/14 08:53:04;;;;;;;42.07;26.60;;;;;;;6.66;100.00;95669.88;5071239;28;20287;-79
2021/11/14 08:55:29;;;;;;;35.90;23.33;;;;;;;6.71;100.00;95670.31;5091944;28;20190;-81
2021/11/14 08:57:58;;;;;;;31.67;22.77;;;;;;;6.55;99.60;95669.91;5075402;28;20177;-80
2021/11/14 09:00:27;;;;;;;30.23;21.23;;;;;;;6.72;99.43;95669.41;5079802;28;20229;-80
2021/11/14 09:02:54;;;;;;;31.03;21.47;;;;;;;6.84;99.58;95670.19;5093387;28;20272;-79
2021/11/14 09:05:21;;;;;;;33.87;22.63;;;;;;;6.87;99.00;95677.69;5094531;28;20203;-80
2021/11/14 09:07:47;;;;;;;33.27;23.17;;;;;;;6.86;98.85;95676.03;5079104;28;20188;-80
2021/11/14 09:10:13;;;;;;;31.60;22.30;;;;;;;6.87;99.18;95672.50;5095461;28;20192;-80
2021/11/14 09:12:39;;;;;;;32.33;21.80;;;;;;;6.90;98.96;95672.28;5094742;28;20180;-80
2021/11/14 09:15:05;;;;;;;33.40;22.57;;;;;;;6.75;98.86;95674.31;5093606;28;20196;-80
2021/11/14 09:17:30;;;;;;;36.33;22.53;;;;;;;6.81;98.56;95678.19;5060301;28;20334;-80
2021/11/14 09:19:55;;;;;;;31.13;22.00;;;;;;;6.72;98.71;95684.91;5072941;28;20675;-80
2021/11/14 09:22:21;;;;;;;31.83;22.30;;;;;;;6.61;99.58;95694.41;5080856;28;20209;-80
2021/11/14 09:24:47;;;;;;;32.20;22.30;;;;;;;6.73;99.15;95698.63;5065159;28;20238;-80
2021/11/14 09:27:12;;;;;;;32.20;22.10;;;;;;;6.56;99.43;95699.94;5071088;28;20181;-81
2021/11/14 09:29:37;;;;;;;34.47;22.87;;;;;;;6.51;99.61;95702.03;5056147;28;20242;-80
2021/11/14 09:32:03;;;;;;;32.33;22.70;;;;;;;6.41;100.00;95699.34;5081049;28;20227;-79
2021/11/14 09:34:28;;;;;;;32.17;22.50;;;;;;;6.56;99.77;95705.09;5092390;28;20674;-80
2021/11/14 09:36:54;;;;;;;35.50;22.70;;;;;;;6.66;99.64;95702.63;5075701;28;20261;-82
2021/11/14 09:39:19;;;;;;;31.93;22.70;;;;;;;6.77;99.20;95703.41;5067994;28;20212;-82
2021/11/14 09:41:47;;;;;;;35.03;23.60;;;;;;;6.86;98.92;95706.19;5068558;28;20212;-79
2021/11/14 09:44:15;;;;;;;31.27;21.13;;;;;;;6.86;98.77;95707.03;5068117;28;20204;-82
2021/11/14 09:46:47;;;;;;;32.93;22.87;;;;;;;6.72;98.71;95708.13;5076286;28;20180;-80
2021/11/14 09:49:14;;;;;;;29.90;21.33;;;;;;;6.81;99.18;95706.59;5092264;28;20187;-81
2021/11/14 09:51:39;;;;;;;30.90;21.67;;;;;;;6.77;98.36;95707.75;5075683;28;20196;-81
2021/11/14 09:54:07;;;;;;;29.90;22.27;;;;;;;6.93;98.11;95709.94;5081569;28;20192;-81
2021/11/14 09:56:32;;;;;;;29.33;21.00;;;;;;;6.99;97.71;95710.28;5074082;28;20599;-81
2021/11/14 09:58:57;;;;;;;31.00;21.63;;;;;;;6.86;97.08;95709.59;5055635;28;20174;-81
2021/11/14 10:01:23;;;;;;;29.40;21.13;;;;;;;6.94;97.99;95711.59;5055886;28;20548;-80
2021/11/14 10:03:48;;;;;;;32.00;21.30;;;;;;;6.87;98.05;95718.16;5064135;28;20236;-81
2021/11/14 10:06:13;;;;;;;30.90;20.90;;;;;;;6.95;96.64;95718.38;5075104;28;20271;-81
2021/11/14 10:08:42;;;;;;;31.90;20.87;;;;;;;6.91;97.40;95722.97;5074739;28;20238;-79
2021/11/14 10:11:08;;;;;;;32.17;22.10;;;;;;;6.94;97.17;95722.72;5091184;28;20283;-80
2021/11/14 10:13:35;;;;;;;31.10;22.57;;;;;;;6.87;97.43;95723.31;5090643;28;20165;-80
2021/11/14 10:16:06;;;;;;;36.10;23.57;;;;;;;6.81;96.91;95725.47;5074545;28;20652;-81
2021/11/14 10:18:32;;;;;;;33.10;22.37;;;;;;;6.81;97.64;95725.47;5091696;28;20198;-80
2021/11/14 10:20:59;;;;;;;31.17;21.33;;;;;;;6.79;97.36;95734.25;5091980;28;20691;-81
2021/11/14 10:23:25;;;;;;;33.37;23.13;;;;;;;6.77;97.59;95728.41;5071093;28;20435;-80
2021/11/14 10:25:52;;;;;;;32.30;22.67;;;;;;;6.89;97.69;95724.88;5078816;28;20224;-80
2021/11/14 10:28:18;;;;;;;30.97;22.43;;;;;;;6.95;97.35;95731.28;5055365;28;20235;-82
2021/11/14 10:30:45;;;;;;;32.00;22.13;;;;;;;6.87;97.47;95734.47;5071715;28;20681;-81
2021/11/14 10:33:13;;;;;;;29.13;22.67;;;;;;;6.90;97.54;95726.50;5055497;28;20177;-80
2021/11/14 10:35:40;;;;;;;35.13;24.00;;;;;;;6.87;96.88;95724.16;5054343;28;20173;-80
2021/11/14 10:38:09;;;;;;;31.80;22.67;;;;;;;6.87;97.72;95729.31;5071573;28;20178;-80
2021/11/14 10:40:41;;;;;;;33.90;22.23;;;;;;;6.92;97.31;95729.78;5072057;28;20687;-81
2021/11/14 10:43:07;;;;;;;31.60;22.80;;;;;;;6.86;96.92;95735.41;5054788;28;20173;-81
2021/11/14 10:45:35;;;;;;;31.67;22.43;;;;;;;6.88;97.23;95730.13;5054328;28;20208;-81
2021/11/14 10:48:06;;;;;;;35.23;23.03;;;;;;;6.85;97.30;95736.38;5071364;28;20197;-81
2021/11/14 10:50:35;;;;;;;30.63;22.33;;;;;;;6.92;97.70;95734.13;5054348;28;20288;-81
2021/11/14 10:53:03;;;;;;;32.07;23.37;;;;;;;6.85;97.80;95736.38;5074046;28;20230;-82
2021/11/14 10:55:31;;;;;;;33.90;23.37;;;;;;;6.83;97.72;95730.50;5065623;28;20181;-82
2021/11/14 10:57:58;;;;;;;33.20;23.93;;;;;;;6.78;97.78;95720.53;5075809;28;20613;-81
2021/11/14 11:00:25;;;;;;;32.17;24.17;;;;;;;6.87;97.83;95718.97;5091534;28;20197;-82
2021/11/14 11:02:51;;;;;;;33.23;23.40;;;;;;;6.91;97.82;95724.75;5091405;28;20169;-81
2021/11/14 11:05:25;;;;;;;33.27;22.33;;;;;;;6.86;96.41;95732.84;5074153;28;20228;-81
2021/11/14 11:08:02;;;;;;;32.33;23.43;;;;;;;6.99;97.28;95733.53;5091548;28;20171;-81
2021/11/14 11:10:41;;;;;;;29.37;22.00;;;;;;;7.17;96.99;95727.84;5091177;28;20231;-80
2021/11/14 11:13:09;;;;;;;29.93;22.03;;;;;;;7.18;96.02;95714.00;5092178;28;20570;-82
2021/11/14 11:15:49;;;;;;;26.17;19.60;;;;;;;7.19;94.61;95728.53;5091069;28;20647;-85
2021/11/14 11:18:17;;;;;;;28.53;20.87;;;;;;;7.04;95.47;95723.63;5092475;28;20535;-81
2021/11/14 11:20:48;;;;;;;31.07;22.70;;;;;;;7.17;95.23;95726.09;5068069;28;20982;-81